^^
Grace C. Lehan Memorial Weather Station Historical Data
Daily Summary for September 2, 2021 Units:  English    Metric   Both
Daily Weekly Monthly Yearly
  High: Low: Average:
Temperature: 76 °F 57.1 °F 65.1 °F
Dew Point: 62.2 °F 52.7 °F 56.7 °F
Humidity: 97% 47.4% 77%
Wind Speed: 11mph 0mph 3.2mph
Wind Gust: 21mph - -
Wind- - WNW
Pressure: 29.95 in 29.59 in -
Precipitation: 1.64 in    
 
 
Tabular Data for September 2, 2021
Time Temperature Dew Point Pressure Wind Wind Speed Wind Gust Humidity Rainfall Rate (Hourly) solar
00:04 61.6 °F 60.7 °F 29.59 in ENE 0.9 mph 4 mph 97% 1.00 in 0 W/m2
00:09 61.6 °F 60.7 °F 29.59 in North 2.3 mph 13 mph 97% 1.10 in 0 W/m2
00:14 61.6 °F 60.7 °F 29.61 in NW 5.3 mph 17 mph 97% 1.21 in 0 W/m2
00:19 61.6 °F 60.7 °F 29.62 in NNW 4.1 mph 17 mph 97% 1.31 in 0 W/m2
00:24 61.5 °F 60.6 °F 29.62 in NW 6.8 mph 21 mph 97% 1.42 in 0 W/m2
00:29 61.2 °F 60.2 °F 29.61 in NNE 2.6 mph 21 mph 96.7% 1.50 in 0 W/m2
00:34 60.9 °F 59.8 °F 29.62 in NE 2.1 mph 21 mph 96.1% 1.50 in 0 W/m2
00:39 60.7 °F 59.9 °F 29.64 in NNW 3.7 mph 14 mph 97% 1.26 in 0 W/m2
00:44 60.6 °F 59.6 °F 29.65 in NNW 4.5 mph 14 mph 96.7% 1.31 in 0 W/m2
00:49 60.4 °F 59.3 °F 29.64 in North 2.5 mph 20 mph 96% 1.35 in 0 W/m2
00:54 60.3 °F 59.2 °F 29.64 in NE 5.4 mph 20 mph 96.3% 1.40 in 0 W/m2
00:59 60 °F 59.2 °F 29.61 in ENE 6.6 mph 21 mph 97% 1.42 in 0 W/m2
01:04 59.8 °F 58.8 °F 29.60 in NE 5.7 mph 21 mph 96.3% 1.42 in 0 W/m2
01:09 59.7 °F 58.5 °F 29.61 in NE 6.6 mph 20 mph 96% 0.34 in 0 W/m2
01:14 59.6 °F 58.5 °F 29.61 in NE 4.2 mph 20 mph 96.3% 0.38 in 0 W/m2
01:19 59.5 °F 58.7 °F 29.61 in NNW 3.6 mph 20 mph 97% 0.42 in 0 W/m2
01:24 59.4 °F 58.6 °F 29.62 in NNW 4.4 mph 20 mph 97% 0.45 in 0 W/m2
01:29 59.4 °F 58.5 °F 29.63 in SW 4.1 mph 20 mph 97% 0.48 in 0 W/m2
01:34 59.3 °F 58.3 °F 29.64 in NW 6.3 mph 20 mph 96.7% 0.51 in 0 W/m2
01:39 59.1 °F 57.9 °F 29.64 in NNW 3.6 mph 16 mph 96% 0.53 in 0 W/m2
01:44 58.9 °F 57.9 °F 29.63 in NNW 3.9 mph 16 mph 96.3% 0.56 in 0 W/m2
01:49 58.8 °F 58 °F 29.62 in NNW 3.7 mph 16 mph 97% 0.59 in 0 W/m2
01:54 58.7 °F 57.9 °F 29.62 in NNW 3.1 mph 16 mph 97% 0.61 in 0 W/m2
01:59 58.6 °F 57.6 °F 29.62 in NNE 3.4 mph 18 mph 96.5% 0.63 in 0 W/m2
02:04 58.6 °F 57.4 °F 29.61 in North 3.3 mph 18 mph 96% 0.63 in 0 W/m2
02:09 58.5 °F 57.4 °F 29.60 in NNE 2.6 mph 17 mph 96.2% 0.45 in 0 W/m2
02:14 58.4 °F 57.6 °F 29.60 in NE 2.7 mph 17 mph 97% 0.49 in 0 W/m2
02:19 58.3 °F 57.5 °F 29.60 in NNE 2.8 mph 17 mph 97% 0.52 in 0 W/m2
02:24 58.2 °F 57.4 °F 29.60 in NE 3.2 mph 17 mph 97% 0.54 in 0 W/m2
02:29 58.1 °F 57.3 °F 29.60 in ENE 3.1 mph 17 mph 97% 0.56 in 0 W/m2
02:34 58 °F 57 °F 29.60 in NE 3.4 mph 17 mph 96.5% 0.56 in 0 W/m2
02:39 57.8 °F 57 °F 29.59 in NE 4.3 mph 16 mph 96.8% 0.38 in 0 W/m2
02:44 57.8 °F 56.9 °F 29.60 in NE 3.4 mph 16 mph 97% 0.41 in 0 W/m2
02:49 57.7 °F 56.8 °F 29.59 in NNE 3 mph 16 mph 97% 0.42 in 0 W/m2
02:54 57.6 °F 56.8 °F 29.60 in ENE 1.8 mph 16 mph 97% 0.43 in 0 W/m2
02:59 57.6 °F 56.8 °F 29.61 in SSW 1.5 mph 16 mph 97% 0.44 in 0 W/m2
03:04 57.6 °F 56.7 °F 29.61 in NE 2.7 mph 17 mph 97% 0.44 in 0 W/m2
03:09 57.5 °F 56.7 °F 29.62 in North 2.9 mph 17 mph 97% 0.34 in 0 W/m2
03:14 57.5 °F 56.7 °F 29.61 in NW 4 mph 17 mph 97% 0.35 in 0 W/m2
03:19 57.5 °F 56.7 °F 29.61 in North 3.5 mph 17 mph 97% 0.36 in 0 W/m2
03:24 57.5 °F 56.7 °F 29.61 in NNW 3.9 mph 17 mph 97% 0.36 in 0 W/m2
03:29 57.5 °F 56.7 °F 29.61 in NNW 3.3 mph 17 mph 97% 0.36 in 0 W/m2
03:34 57.5 °F 56.6 °F 29.61 in North 2 mph 17 mph 97% 0.36 in 0 W/m2
03:39 57.4 °F 56.6 °F 29.61 in NNE 1.7 mph 13 mph 97% 0.20 in 0 W/m2
04:09 57.2 °F 56.4 °F 29.61 in ENE 1.6 mph 12 mph 97% 0.21 in 0 W/m2
04:14 57.2 °F 56.4 °F 29.60 in ENE 2 mph 12 mph 97% 0.21 in 0 W/m2
04:19 57.2 °F 56.4 °F 29.60 in NE 1.6 mph 12 mph 97% 0.21 in 0 W/m2
04:24 57.2 °F 56.3 °F 29.59 in ENE 3 mph 12 mph 97% 0.21 in 0 W/m2
04:29 57.1 °F 56.3 °F 29.59 in North 3.2 mph 15 mph 97% 0.21 in 0 W/m2
04:34 57.1 °F 56.3 °F 29.59 in NNW 3.2 mph 15 mph 97% 0.21 in 0 W/m2
04:39 57.2 °F 56.4 °F 29.59 in NNW 2.5 mph 9 mph 97% 0.02 in 0 W/m2
04:44 57.2 °F 56.4 °F 29.60 in North 1.3 mph 9 mph 97% 0.02 in 0 W/m2
04:49 57.2 °F 56.4 °F 29.60 in NNW 1.9 mph 15 mph 97% 0.02 in 0 W/m2
04:54 57.2 °F 56.4 °F 29.60 in NNW 1.8 mph 15 mph 97% 0.02 in 0 W/m2
04:59 57.2 °F 56.4 °F 29.60 in North 2.2 mph 15 mph 97% 0.02 in 0 W/m2
05:04 57.2 °F 56.3 °F 29.60 in NNW 1.5 mph 15 mph 97% 0.02 in 0 W/m2
05:09 57.1 °F 56.3 °F 29.61 in NNW 1.4 mph 11 mph 97% 0.00 in 0 W/m2
05:14 57.1 °F 56.3 °F 29.61 in NW 1.9 mph 11 mph 97% 0.00 in 0 W/m2
05:19 57.2 °F 56.3 °F 29.62 in NNW 2.2 mph 11 mph 97% 0.00 in 0 W/m2
05:24 57.2 °F 56.3 °F 29.62 in NW 3.4 mph 15 mph 97% 0.00 in 0 W/m2
05:29 57.2 °F 56.3 °F 29.62 in NW 3.3 mph 15 mph 97% 0.00 in 0 W/m2
05:34 57.1 °F 56.3 °F 29.63 in NNW 4 mph 16 mph 97% 0.00 in 0 W/m2
05:39 57.1 °F 56.3 °F 29.63 in NNW 4.6 mph 16 mph 97% 0.00 in 0 W/m2
05:44 57.1 °F 56.3 °F 29.64 in NNW 4.5 mph 16 mph 97% 0.00 in 0 W/m2
05:49 57.1 °F 56.3 °F 29.64 in NW 4.3 mph 16 mph 97% 0.00 in 0 W/m2
05:54 57.1 °F 56.3 °F 29.65 in NNW 3.6 mph 16 mph 97% 0.00 in 0 W/m2
05:59 57.1 °F 56.3 °F 29.65 in NNW 1.6 mph 16 mph 97% 0.00 in 0 W/m2
06:04 57.1 °F 56.3 °F 29.65 in NW 4.3 mph 16 mph 97% 0.00 in 0 W/m2
06:09 57.2 °F 56.4 °F 29.65 in NNW 3.3 mph 16 mph 97% 0.00 in 0 W/m2
06:14 57.2 °F 56.4 °F 29.65 in NW 2.7 mph 16 mph 97% 0.00 in 0 W/m2
06:19 57.3 °F 56.5 °F 29.65 in NW 2.7 mph 16 mph 97% 0.00 in 0 W/m2
06:24 57.3 °F 56.5 °F 29.65 in NNW 3.4 mph 16 mph 97% 0.00 in 0 W/m2
06:29 57.4 °F 56.6 °F 29.65 in NNW 3.6 mph 17 mph 97% 0.00 in 0 W/m2
06:34 57.4 °F 56.6 °F 29.66 in NNW 3.7 mph 17 mph 97% 0.00 in 0 W/m2
06:39 57.5 °F 56.7 °F 29.66 in NNW 3.6 mph 15 mph 97% 0.00 in 0 W/m2
06:44 57.5 °F 56.7 °F 29.66 in NNW 3.6 mph 15 mph 97% 0.00 in 7 W/m2
06:49 57.6 °F 56.7 °F 29.67 in NNW 3.8 mph 15 mph 97% 0.00 in 11 W/m2
06:54 57.6 °F 56.8 °F 29.67 in NW 2.4 mph 15 mph 97% 0.00 in 11 W/m2
06:59 57.7 °F 56.9 °F 29.67 in North 1.9 mph 15 mph 97% 0.00 in 7 W/m2
07:04 57.7 °F 56.9 °F 29.67 in North 3.4 mph 15 mph 97% 0.00 in 21 W/m2
07:09 57.8 °F 57 °F 29.67 in NNW 4 mph 14 mph 97% 0.00 in 33 W/m2
07:14 57.9 °F 57.1 °F 29.68 in NNW 1.9 mph 14 mph 97% 0.00 in 44 W/m2
07:19 58 °F 57.2 °F 29.68 in NW 2.9 mph 14 mph 97% 0.00 in 49 W/m2
07:24 58.2 °F 57.3 °F 29.68 in NNW 3.2 mph 14 mph 97% 0.00 in 65 W/m2
07:29 58.3 °F 57.5 °F 29.68 in NNW 3.5 mph 14 mph 97% 0.00 in 67 W/m2
07:34 58.4 °F 57.3 °F 29.68 in NNW 3.2 mph 14 mph 96.1% 0.00 in 70 W/m2
07:39 58.6 °F 57.4 °F 29.68 in NW 1.6 mph 11 mph 96% 0.00 in 91 W/m2
07:44 58.8 °F 57.7 °F 29.68 in NW 1.8 mph 11 mph 96% 0.00 in 97 W/m2
07:49 59 °F 57.9 °F 29.69 in NW 3.9 mph 14 mph 96% 0.00 in 125 W/m2
07:54 59.3 °F 58.1 °F 29.69 in NNW 3 mph 14 mph 96% 0.00 in 135 W/m2
07:59 59.6 °F 58.4 °F 29.69 in NW 2.4 mph 14 mph 96% 0.00 in 135 W/m2
08:00 59.8 °F 58.7 °F 29.69 in Calm   14 mph 96% 0.00 in 125 W/m2
08:09 60.1 °F 58.7 °F 29.70 in NW 2.1 mph 11 mph 95% 0.00 in 105 W/m2
08:14 60.4 °F 58.9 °F 29.70 in NNW 3.2 mph 13 mph 94.8% 0.00 in 130 W/m2
08:19 60.6 °F 58.9 °F 29.70 in NNW 4.5 mph 13 mph 94% 0.00 in 128 W/m2
08:24 60.9 °F 58.9 °F 29.71 in NNW 3.6 mph 13 mph 93.1% 0.00 in 116 W/m2
08:29 61.2 °F 59.1 °F 29.70 in NNW 3.9 mph 14 mph 92.8% 0.00 in 483 W/m2
08:34 61.7 °F 59.4 °F 29.71 in NNW 4.8 mph 14 mph 92% 0.00 in 383 W/m2
08:39 62.1 °F 59.5 °F 29.71 in NNW 5.7 mph 15 mph 91% 0.00 in 160 W/m2
08:44 62.3 °F 59.2 °F 29.71 in NW 6 mph 18 mph 89.4% 0.00 in 153 W/m2
08:49 62.4 °F 59.1 °F 29.72 in NNW 3 mph 18 mph 89% 0.00 in 127 W/m2
08:54 62.5 °F 59.2 °F 29.72 in North 2.8 mph 18 mph 89% 0.00 in 134 W/m2
08:59 62.5 °F 58.9 °F 29.72 in NW 4.7 mph 18 mph 87.9% 0.00 in 130 W/m2
09:04 62.7 °F 58.8 °F 29.72 in NNW 4.5 mph 18 mph 87.1% 0.00 in 225 W/m2
09:09 63 °F 59 °F 29.73 in NNW 3.7 mph 18 mph 87% 0.00 in 225 W/m2
09:14 63.3 °F 59.1 °F 29.73 in NW 4.1 mph 18 mph 86% 0.00 in 415 W/m2
09:19 64 °F 59.6 °F 29.73 in NW 2.5 mph 18 mph 85.7% 0.00 in 415 W/m2
09:24 65.1 °F 60.8 °F 29.73 in NW 2.3 mph 18 mph 85.9% 0.00 in 737 W/m2
09:29 66.3 °F 61.1 °F 29.73 in NW 2.3 mph 18 mph 83.4% 0.00 in 592 W/m2
09:34 67.3 °F 60.9 °F 29.74 in NNE 2 mph 18 mph 80% 0.00 in 608 W/m2
09:39 68 °F 61.5 °F 29.74 in North 2.1 mph 10 mph 79.7% 0.00 in 640 W/m2
09:44 68.6 °F 61.2 °F 29.74 in NNW 0.8 mph 10 mph 77.2% 0.00 in 652 W/m2
09:49 69 °F 61 °F 29.74 in NNW 2 mph 12 mph 75.6% 0.00 in 696 W/m2
09:54 69.5 °F 61.8 °F 29.74 in North 2.6 mph 12 mph 76.5% 0.00 in 712 W/m2
09:59 70.2 °F 61.8 °F 29.74 in NW 2.3 mph 12 mph 74.9% 0.00 in 766 W/m2
10:04 70.6 °F 61.6 °F 29.74 in NNW 1.2 mph 12 mph 73.4% 0.00 in 689 W/m2
10:09 71 °F 62.1 °F 29.74 in NNW 1.6 mph 11 mph 73.3% 0.00 in 703 W/m2
10:14 71.4 °F 61.8 °F 29.74 in North 1.1 mph 11 mph 71.8% 0.00 in 717 W/m2
10:19 71.7 °F 62.2 °F 29.74 in NNW 4.3 mph 14 mph 72.1% 0.00 in 724 W/m2
10:24 71.8 °F 61.2 °F 29.74 in NNW 5.5 mph 14 mph 69.2% 0.00 in 749 W/m2
10:29 71.8 °F 60.6 °F 29.74 in NW 4.9 mph 14 mph 67.9% 0.00 in 752 W/m2
10:34 71.9 °F 61.7 °F 29.74 in NNW 3.1 mph 14 mph 70.2% 0.00 in 756 W/m2
10:39 72.2 °F 61.4 °F 29.74 in NW 3.2 mph 11 mph 68.7% 0.00 in 765 W/m2
10:44 72.6 °F 61.9 °F 29.74 in North 1.8 mph 11 mph 69% 0.00 in 779 W/m2
10:49 73.1 °F 61.8 °F 29.75 in NW 5.5 mph 16 mph 67.8% 0.00 in 793 W/m2
10:54 73.1 °F 60.9 °F 29.75 in NW 2.7 mph 16 mph 65.7% 0.00 in 812 W/m2
10:59 73.1 °F 60.5 °F 29.75 in NW 4 mph 17 mph 64.6% 0.00 in 803 W/m2
11:04 73.2 °F 60.7 °F 29.75 in NW 2.8 mph 17 mph 65% 0.00 in 812 W/m2
11:09 73.5 °F 59.6 °F 29.75 in North 2.6 mph 16 mph 61.8% 0.00 in 817 W/m2
11:14 73.5 °F 59.6 °F 29.75 in NNE 2 mph 16 mph 61.7% 0.00 in 824 W/m2
11:19 73.9 °F 60.3 °F 29.75 in NNW 1.8 mph 16 mph 62.7% 0.00 in 833 W/m2
11:24 74.1 °F 59.2 °F 29.75 in NW 4.2 mph 16 mph 59.7% 0.00 in 838 W/m2
11:29 74.4 °F 60.2 °F 29.75 in NNE 2.4 mph 16 mph 61.3% 0.00 in 847 W/m2
11:34 74.6 °F 59.7 °F 29.75 in NNW 3.7 mph 16 mph 59.7% 0.00 in 856 W/m2
11:39 74.7 °F 59.9 °F 29.75 in NNW 2.6 mph 11 mph 60% 0.00 in 881 W/m2
11:44 74.9 °F 60.4 °F 29.75 in NW 3.7 mph 19 mph 60.7% 0.00 in 960 W/m2
11:49 75.2 °F 61.2 °F 29.75 in NW 2.6 mph 19 mph 61.7% 0.00 in 944 W/m2
11:54 75.6 °F 59.4 °F 29.75 in NW 5.6 mph 19 mph 57.2% 0.00 in 921 W/m2
11:59 75.5 °F 58.4 °F 29.75 in NNW 3.2 mph 19 mph 55.3% 0.00 in 926 W/m2
12:00 75.4 °F 59.1 °F 29.75 in NE 1 mph 19 mph 57% 0.00 in 202 W/m2
12:09 74.9 °F 57.6 °F 29.75 in NNW 2.6 mph 9 mph 54.8% 0.00 in 69 W/m2
12:14 74.6 °F 58.1 °F 29.75 in North 2.6 mph 13 mph 56.4% 0.00 in 120 W/m2
12:19 74.3 °F 57.2 °F 29.75 in NNW 4.5 mph 14 mph 55.1% 0.00 in 142 W/m2
12:24 74.2 °F 58.1 °F 29.75 in NW 0.6 mph 14 mph 57.3% 0.00 in 135 W/m2
12:29 74.3 °F 58.3 °F 29.75 in NW 3 mph 14 mph 57.6% 0.00 in 130 W/m2
12:34 74.4 °F 57.2 °F 29.76 in NW 5.7 mph 14 mph 55% 0.00 in 796 W/m2
12:39 74.4 °F 56.3 °F 29.76 in NW 5.2 mph 14 mph 53.2% 0.00 in 796 W/m2
12:44 74.3 °F 55.1 °F 29.76 in NW 5.9 mph 15 mph 51.2% 0.00 in 234 W/m2
12:49 74.2 °F 55.9 °F 29.76 in NW 1.8 mph 15 mph 52.7% 0.00 in 313 W/m2
12:54 74.4 °F 55.6 °F 29.76 in NW 3.4 mph 15 mph 52% 0.00 in 925 W/m2
12:59 74.5 °F 55 °F 29.76 in NW 5.8 mph 15 mph 50.6% 0.00 in 916 W/m2
13:04 74.5 °F 54.4 °F 29.76 in NNW 3.2 mph 15 mph 49.4% 0.00 in 912 W/m2
13:09 74.5 °F 54.1 °F 29.76 in NW 3.1 mph 14 mph 48.9% 0.00 in 911 W/m2
13:14 74.6 °F 54.2 °F 29.76 in NW 5.8 mph 14 mph 49.1% 0.00 in 907 W/m2
13:19 74.6 °F 54.5 °F 29.76 in NW 3 mph 14 mph 49.6% 0.00 in 271 W/m2
13:24 74.5 °F 54.8 °F 29.76 in NNW 2.4 mph 14 mph 50.3% 0.00 in 911 W/m2
13:29 74.5 °F 55.2 °F 29.76 in WNW 6.8 mph 15 mph 50.9% 0.00 in 935 W/m2
13:34 74.6 °F 55.1 °F 29.76 in NW 4.6 mph 15 mph 50.7% 0.00 in 911 W/m2
13:39 74.7 °F 55.3 °F 29.76 in NW 3.8 mph 12 mph 50.9% 0.00 in 900 W/m2
13:44 74.8 °F 55.3 °F 29.77 in NW 5.1 mph 17 mph 50.7% 0.00 in 826 W/m2
13:49 74.7 °F 54.3 °F 29.77 in NW 7.3 mph 17 mph 49% 0.00 in 886 W/m2
13:54 74.5 °F 53.7 °F 29.77 in WNW 6 mph 18 mph 48.3% 0.00 in 888 W/m2
13:59 74.3 °F 53.5 °F 29.77 in NW 3.6 mph 18 mph 48.3% 0.00 in 819 W/m2
14:04 74.2 °F 54.6 °F 29.77 in NW 3.6 mph 18 mph 50.4% 0.00 in 891 W/m2
14:09 74.4 °F 54.4 °F 29.77 in NNW 4.2 mph 12 mph 49.6% 0.00 in 904 W/m2
14:14 74.6 °F 54.3 °F 29.77 in NW 3.8 mph 18 mph 49.3% 0.00 in 962 W/m2
14:19 74.8 °F 55.2 °F 29.78 in WNW 3.6 mph 18 mph 50.5% 0.00 in 962 W/m2
14:24 75.3 °F 54.5 °F 29.78 in NW 3.5 mph 18 mph 48.3% 0.00 in 874 W/m2
14:29 75.7 °F 54.6 °F 29.78 in NW 6.4 mph 18 mph 48% 0.00 in 951 W/m2
14:34 75.8 °F 55.1 °F 29.78 in NNW 2.8 mph 18 mph 48.8% 0.00 in 937 W/m2
14:39 76 °F 55.1 °F 29.78 in NW 4 mph 13 mph 48.3% 0.00 in 918 W/m2
14:44 75.9 °F 54.7 °F 29.78 in NW 5.9 mph 15 mph 47.8% 0.00 in 872 W/m2
14:49 75.3 °F 54.7 °F 29.78 in NW 7.4 mph 17 mph 48.7% 0.00 in 888 W/m2
14:54 74.9 °F 55 °F 29.78 in WNW 5 mph 17 mph 49.8% 0.00 in 888 W/m2
14:59 74.6 °F 54.9 °F 29.78 in WNW 7 mph 17 mph 50.3% 0.00 in 891 W/m2
15:04 74.8 °F 55 °F 29.78 in WNW 5.8 mph 19 mph 50.3% 0.00 in 921 W/m2
15:09 74.8 °F 55.2 °F 29.79 in WNW 6.1 mph 19 mph 50.4% 0.00 in 921 W/m2
15:14 74.7 °F 55 °F 29.79 in NW 6.1 mph 19 mph 50.3% 0.00 in 921 W/m2
15:19 74.5 °F 55.1 °F 29.79 in NW 4.8 mph 19 mph 50.8% 0.00 in 821 W/m2
15:24 74.7 °F 54.6 °F 29.79 in NW 5.8 mph 19 mph 49.7% 0.00 in 765 W/m2
15:29 74.9 °F 55.3 °F 29.79 in NW 2.9 mph 19 mph 50.5% 0.00 in 765 W/m2
15:34 75 °F 53.7 °F 29.79 in NW 7.4 mph 19 mph 47.4% 0.00 in 831 W/m2
15:39 74.7 °F 53.7 °F 29.80 in NW 3.2 mph 15 mph 48% 0.00 in 765 W/m2
15:44 74.6 °F 53.9 °F 29.80 in NW 3.3 mph 15 mph 48.4% 0.00 in 744 W/m2
15:49 74.9 °F 54.9 °F 29.80 in West 6.1 mph 15 mph 49.8% 0.00 in 735 W/m2
15:54 75.2 °F 55 °F 29.80 in NW 8.6 mph 19 mph 49.4% 0.00 in 742 W/m2
15:59 75.1 °F 55.2 °F 29.80 in WNW 6.9 mph 19 mph 50% 0.00 in 721 W/m2
16:00 75 °F 55.7 °F 29.80 in West 11 mph 19 mph 51% 0.00 in 596 W/m2
16:09 74.3 °F 55.4 °F 29.81 in NW 7.2 mph 16 mph 51.7% 0.00 in 95 W/m2
16:14 73.8 °F 54.4 °F 29.81 in NW 7.3 mph 16 mph 50.8% 0.00 in 58 W/m2
16:19 73.1 °F 55.1 °F 29.81 in NW 3.4 mph 16 mph 53.2% 0.00 in 58 W/m2
16:24 72.6 °F 54.9 °F 29.82 in NW 3.1 mph 16 mph 53.8% 0.00 in 35 W/m2
16:29 71.9 °F 54.8 °F 29.82 in WNW 3.4 mph 16 mph 54.8% 0.00 in 51 W/m2
16:34 71.1 °F 54.2 °F 29.82 in NW 4.9 mph 16 mph 55.1% 0.00 in 53 W/m2
16:39 70.6 °F 54.7 °F 29.82 in NW 2.8 mph 15 mph 57.1% 0.00 in 47 W/m2
16:44 70.6 °F 55.1 °F 29.82 in WNW 3.9 mph 15 mph 58% 0.00 in 46 W/m2
17:30 69.3 °F 56.2 °F 29.84 in WNW 4 mph 14 mph 63% 0.00 in 43 W/m2
18:00 68.5 °F 56.7 °F 29.85 in NW 1 mph 9 mph 66% 0.00 in 35 W/m2
18:30 67.7 °F 56.8 °F 29.86 in Calm   5 mph 68% 0.00 in 19 W/m2
19:00 67.6 °F 55.8 °F 29.87 in NW 2 mph 14 mph 66% 0.00 in 23 W/m2
19:30 66.3 °F 55.8 °F 29.88 in NW 2 mph 13 mph 69% 0.00 in 2 W/m2
20:04 65 °F 55 °F 29.90 in Calm   2 mph 70% 0.00 in 0 W/m2
20:09 64.9 °F 54.9 °F 29.91 in Calm   2 mph 70% 0.00 in 0 W/m2
20:14 64.7 °F 54.9 °F 29.91 in NW 0.8 mph 6 mph 70.3% 0.00 in 0 W/m2
20:19 64.6 °F 55 °F 29.91 in WNW 1.6 mph 7 mph 71% 0.00 in 0 W/m2
20:24 64.5 °F 54.9 °F 29.91 in NW 1.6 mph 7 mph 71% 0.00 in 0 W/m2
20:29 64.5 °F 54.7 °F 29.91 in WNW 0.3 mph 7 mph 70.6% 0.00 in 0 W/m2
20:34 64.4 °F 54.8 °F 29.92 in NW 1.2 mph 7 mph 71% 0.00 in 0 W/m2
20:39 64.4 °F 54.6 °F 29.92 in NNW 0.3 mph 6 mph 70.6% 0.00 in 0 W/m2
20:44 64.3 °F 54.3 °F 29.92 in NNW 1.3 mph 11 mph 70% 0.00 in 0 W/m2
20:49 64.3 °F 54.3 °F 29.92 in NW 0.6 mph 11 mph 70% 0.00 in 0 W/m2
20:54 64.3 °F 54.2 °F 29.92 in NW 2.6 mph 11 mph 69.8% 0.00 in 0 W/m2
20:59 64.1 °F 54 °F 29.92 in NW 2.5 mph 11 mph 69.7% 0.00 in 0 W/m2
21:04 64.1 °F 54.1 °F 29.92 in NNW 1.4 mph 11 mph 70% 0.00 in 0 W/m2
21:09 64 °F 54 °F 29.92 in NNW 2.4 mph 13 mph 70% 0.00 in 0 W/m2
21:14 63.9 °F 53.9 °F 29.92 in NW 2 mph 13 mph 70% 0.00 in 0 W/m2
21:19 63.7 °F 53.8 °F 29.92 in NW 2.1 mph 13 mph 70% 0.00 in 0 W/m2
21:24 63.6 °F 53.8 °F 29.92 in NW 3 mph 13 mph 70.3% 0.00 in 0 W/m2
21:29 63.5 °F 53.8 °F 29.92 in NW 2.6 mph 15 mph 70.5% 0.00 in 0 W/m2
21:34 63.5 °F 53.7 °F 29.92 in NW 2.4 mph 15 mph 70.3% 0.00 in 0 W/m2
21:39 63.5 °F 53.9 °F 29.92 in NW 2 mph 9 mph 70.9% 0.00 in 0 W/m2
21:44 63.6 °F 54 °F 29.92 in NW 1 mph 9 mph 71% 0.00 in 0 W/m2
21:49 63.6 °F 54 °F 29.92 in WNW 4.2 mph 14 mph 71% 0.00 in 0 W/m2
21:54 63.6 °F 54 °F 29.92 in WNW 3.3 mph 14 mph 71% 0.00 in 0 W/m2
21:59 63.5 °F 53.8 °F 29.92 in NW 2.5 mph 14 mph 70.5% 0.00 in 0 W/m2
22:04 63.5 °F 53.7 °F 29.92 in NW 2.1 mph 14 mph 70.5% 0.00 in 0 W/m2
22:09 63.5 °F 53.9 °F 29.92 in NW 4.2 mph 12 mph 71% 0.00 in 0 W/m2
22:14 63.4 °F 53.4 °F 29.92 in NW 3.6 mph 15 mph 70% 0.00 in 0 W/m2
22:19 63.2 °F 53.6 °F 29.92 in NW 5.6 mph 15 mph 70.8% 0.00 in 0 W/m2
22:24 63.1 °F 53.5 °F 29.92 in NNW 2.8 mph 15 mph 71% 0.00 in 0 W/m2
22:29 62.9 °F 53.4 °F 29.92 in NW 1.8 mph 15 mph 71% 0.00 in 0 W/m2
22:34 62.8 °F 53.4 °F 29.93 in NW 2.6 mph 15 mph 71.6% 0.00 in 0 W/m2
22:39 62.5 °F 53.4 °F 29.93 in NW 2.6 mph 14 mph 71.9% 0.00 in 0 W/m2
22:44 62.3 °F 53.2 °F 29.93 in NNW 1.3 mph 14 mph 72% 0.00 in 0 W/m2
22:49 62.2 °F 53.2 °F 29.93 in NNW 2.4 mph 14 mph 72.3% 0.00 in 0 W/m2
22:54 62.1 °F 53.2 °F 29.94 in NW 0.4 mph 14 mph 72.5% 0.00 in 0 W/m2
22:59 62 °F 52.9 °F 29.94 in Calm   14 mph 72.1% 0.00 in 0 W/m2
23:04 61.9 °F 53.1 °F 29.94 in NNW 0.6 mph 14 mph 73% 0.00 in 0 W/m2
23:09 61.8 °F 53 °F 29.94 in NW 1.4 mph 7 mph 73% 0.00 in 0 W/m2
23:14 61.6 °F 53.2 °F 29.94 in NW 0.8 mph 7 mph 73.8% 0.00 in 0 W/m2
23:19 61.5 °F 53.1 °F 29.94 in NW 0.4 mph 7 mph 74% 0.00 in 0 W/m2
23:24 61.3 °F 53 °F 29.94 in NW 0.5 mph 7 mph 74% 0.00 in 0 W/m2
23:29 61.2 °F 53.1 °F 29.94 in NNW 0.8 mph 7 mph 74.8% 0.00 in 0 W/m2
23:34 61.1 °F 53.1 °F 29.94 in NW 0.7 mph 7 mph 75% 0.00 in 0 W/m2
23:39 60.9 °F 53 °F 29.95 in WNW 0.8 mph 7 mph 75% 0.00 in 0 W/m2
23:44 60.8 °F 52.9 °F 29.95 in WNW 0.2 mph 7 mph 75% 0.00 in 0 W/m2
23:49 60.7 °F 52.8 °F 29.95 in WNW 0.1 mph 7 mph 75% 0.00 in 0 W/m2
23:54 60.6 °F 52.7 °F 29.95 in Calm   7 mph 75% 0.00 in 0 W/m2
23:59 60.5 °F 52.8 °F 29.95 in Calm   7 mph 75.8% 0.00 in 0 W/m2
Hartford County Weather
Compliments of Weather Underground - 2 mb